createdAt,value
2019-01-23T00:00:52.597Z,31.00
2019-01-23T00:05:44.224Z,33.77
2019-01-23T00:10:35.121Z,31.90
2019-01-23T00:15:26.009Z,31.70
2019-01-23T00:20:16.898Z,34.05
2019-01-23T00:25:08.533Z,34.73
2019-01-23T00:30:00.281Z,42.72
2019-01-23T00:34:51.106Z,34.70
2019-01-23T00:39:42.072Z,32.60
2019-01-23T00:44:32.978Z,34.20
2019-01-23T00:49:23.873Z,32.90
2019-01-23T00:54:14.776Z,32.90
2019-01-23T00:59:05.680Z,33.30
2019-01-23T01:03:57.377Z,34.97
2019-01-23T01:08:48.277Z,35.30
2019-01-23T01:13:39.169Z,34.63
2019-01-23T01:18:30.080Z,30.83
2019-01-23T01:23:20.978Z,33.67
2019-01-23T01:28:12.697Z,34.25
2019-01-23T01:33:04.339Z,32.43
2019-01-23T01:37:55.234Z,42.83
2019-01-23T01:42:46.146Z,35.60
2019-01-23T01:47:37.048Z,35.53
2019-01-23T01:52:27.949Z,33.03
2019-01-23T01:57:18.846Z,33.70
2019-01-23T02:02:10.542Z,34.70
2019-01-23T02:07:01.446Z,34.60
2019-01-23T02:11:52.344Z,32.00
2019-01-23T02:16:43.242Z,32.03
2019-01-23T02:21:34.929Z,32.70
2019-01-23T02:26:25.843Z,31.27
2019-01-23T02:31:16.749Z,30.77
2019-01-23T02:36:07.690Z,32.70
2019-01-23T02:40:58.598Z,40.08
2019-01-23T02:45:49.513Z,33.47
2019-01-23T02:50:40.460Z,42.70
2019-01-23T02:55:31.358Z,34.37
2019-01-23T03:00:22.282Z,28.87
2019-01-23T03:05:14.145Z,29.97
2019-01-23T03:10:05.052Z,31.97
2019-01-23T03:14:55.962Z,29.30
2019-01-23T03:19:46.894Z,29.40
2019-01-23T03:24:37.808Z,30.17
2019-01-23T03:29:29.464Z,28.10
2019-01-23T03:34:20.362Z,29.63
2019-01-23T03:39:11.277Z,28.87
2019-01-23T03:44:02.179Z,31.03
2019-01-23T03:48:59.998Z,28.33
2019-01-23T03:53:50.998Z,41.50
2019-01-23T03:58:41.896Z,31.03
2019-01-23T04:03:32.790Z,39.33
2019-01-23T04:08:23.755Z,33.47
2019-01-23T04:13:14.655Z,31.60
2019-01-23T04:18:05.557Z,31.30
2019-01-23T04:22:56.523Z,30.70
2019-01-23T04:27:47.434Z,29.93
2019-01-23T04:32:38.339Z,28.40
2019-01-23T04:37:29.966Z,30.03
2019-01-23T04:42:20.878Z,31.40
2019-01-23T04:47:11.775Z,31.40
2019-01-23T04:52:02.726Z,29.30
2019-01-23T04:56:53.654Z,28.83
2019-01-23T05:01:44.562Z,31.23
2019-01-23T05:06:35.491Z,39.05
2019-01-23T05:11:26.410Z,31.40
2019-01-23T05:16:17.305Z,31.00
2019-01-23T05:21:08.207Z,30.50
2019-01-23T05:25:59.105Z,31.13
2019-01-23T05:30:50.804Z,31.20
2019-01-23T05:35:41.704Z,33.50
2019-01-23T05:40:32.609Z,31.00
2019-01-23T05:45:23.530Z,31.80
2019-01-23T05:50:14.426Z,32.40
2019-01-23T05:55:05.326Z,30.47
2019-01-23T06:00:02.322Z,31.23
2019-01-23T06:04:47.914Z,29.70
2019-01-23T06:09:38.871Z,30.57
2019-01-23T06:14:29.771Z,30.00
2019-01-23T06:19:20.679Z,31.80
2019-01-23T06:24:11.574Z,33.10
2019-01-23T06:29:02.496Z,43.53
2019-01-23T06:33:53.414Z,36.10
2019-01-23T06:38:44.383Z,32.80
2019-01-23T06:43:35.282Z,33.23
2019-01-23T06:48:26.187Z,35.70
2019-01-23T06:53:17.138Z,33.60
2019-01-23T06:58:08.042Z,35.00
2019-01-23T07:02:58.955Z,33.40
2019-01-23T07:07:49.858Z,33.87
2019-01-23T07:12:40.810Z,33.00
2019-01-23T07:17:31.888Z,30.23
2019-01-23T07:22:22.799Z,31.67
2019-01-23T07:27:13.785Z,34.33
2019-01-23T07:32:04.799Z,32.30
2019-01-23T07:36:55.720Z,32.80
2019-01-23T07:41:46.643Z,35.60
2019-01-23T07:46:37.542Z,44.90
2019-01-23T07:51:28.449Z,37.47
2019-01-23T07:56:19.346Z,38.47
2019-01-23T08:01:10.345Z,36.23
2019-01-23T08:06:02.042Z,34.93
2019-01-23T08:10:52.992Z,38.80
2019-01-23T08:15:44.716Z,36.63
2019-01-23T08:20:35.740Z,37.10
2019-01-23T08:25:26.647Z,37.83
2019-01-23T08:30:18.198Z,35.30
2019-01-23T08:35:09.101Z,36.33
2019-01-23T08:40:00.011Z,39.37
2019-01-23T08:44:50.935Z,36.63
2019-01-23T08:49:41.942Z,39.17
2019-01-23T08:54:32.846Z,39.83
2019-01-23T08:59:23.749Z,40.00
2019-01-23T09:04:14.698Z,54.45
2019-01-23T09:09:05.614Z,43.67
2019-01-23T09:13:56.550Z,42.57
2019-01-23T09:18:47.454Z,39.30
2019-01-23T09:23:38.434Z,42.80
2019-01-23T09:28:29.350Z,44.77
2019-01-23T09:33:26.042Z,41.13
2019-01-23T09:38:17.782Z,45.80
2019-01-23T09:43:11.712Z,41.13
2019-01-23T09:48:08.241Z,47.40
2019-01-23T09:53:00.111Z,49.80
2019-01-23T09:57:51.810Z,43.43
2019-01-23T10:02:42.886Z,54.77
2019-01-23T10:07:33.794Z,48.20
2019-01-23T10:12:25.436Z,53.57
2019-01-23T10:17:16.402Z,55.80
2019-01-23T10:22:07.321Z,73.22
2019-01-23T10:26:58.223Z,63.00
2019-01-23T10:31:49.186Z,60.40
2019-01-23T10:36:40.179Z,60.53
2019-01-23T10:41:31.226Z,63.33
2019-01-23T10:46:22.128Z,65.30
2019-01-23T10:51:13.040Z,62.93
2019-01-23T10:56:03.955Z,63.27
2019-01-23T11:00:54.870Z,69.30
2019-01-23T11:05:45.788Z,67.90
2019-01-23T11:10:36.708Z,71.90
2019-01-23T11:15:27.610Z,67.67
2019-01-23T11:20:18.524Z,73.00
2019-01-23T11:25:09.418Z,71.17
2019-01-23T11:30:00.323Z,76.10
2019-01-23T11:34:51.234Z,94.85
2019-01-23T11:39:42.891Z,71.47
2019-01-23T11:44:33.804Z,72.90
2019-01-23T11:49:25.442Z,74.53
2019-01-23T11:54:17.097Z,73.97
2019-01-23T11:59:08.046Z,76.23
2019-01-23T12:03:58.954Z,74.43
2019-01-23T12:08:49.854Z,76.50
2019-01-23T12:13:40.810Z,80.27
2019-01-23T12:18:31.727Z,77.63
2019-01-23T12:23:22.708Z,82.70
2019-01-23T12:28:13.605Z,81.90
2019-01-23T12:33:05.343Z,75.97
2019-01-23T12:37:57.002Z,90.07
2019-01-23T12:42:47.955Z,110.50
2019-01-23T12:47:39.599Z,87.40
2019-01-23T12:52:30.514Z,87.83
2019-01-23T12:57:21.414Z,89.93
2019-01-23T13:02:12.318Z,85.83
2019-01-23T13:07:03.259Z,82.10
2019-01-23T13:11:54.253Z,85.67
2019-01-23T13:16:45.158Z,86.20
2019-01-23T13:21:36.134Z,84.90
2019-01-23T13:26:27.048Z,83.40
2019-01-23T13:31:17.974Z,81.17
2019-01-23T13:36:08.976Z,81.93
2019-01-23T13:40:59.880Z,101.25
2019-01-23T13:45:50.786Z,81.10
2019-01-23T13:50:41.681Z,82.50
2019-01-23T13:55:33.377Z,78.07
2019-01-23T14:00:26.067Z,78.30
2019-01-23T14:05:17.779Z,79.20
2019-01-23T14:10:11.700Z,75.67
2019-01-23T14:15:03.343Z,76.13
2019-01-23T14:19:54.983Z,76.30
2019-01-23T14:24:45.886Z,75.40
2019-01-23T14:29:37.530Z,73.30
2019-01-23T14:34:29.418Z,76.33
2019-01-23T14:39:20.318Z,74.37
2019-01-23T14:44:11.285Z,70.70
2019-01-23T14:49:02.191Z,67.33
2019-01-23T14:53:54.590Z,62.30
2019-01-23T14:58:45.490Z,61.30
2019-01-23T15:03:37.185Z,61.67
2019-01-23T15:08:28.080Z,59.70
2019-01-23T15:13:18.974Z,55.17
2019-01-23T15:18:10.618Z,53.80
2019-01-23T15:23:01.521Z,53.40
2019-01-23T15:27:53.161Z,52.30
2019-01-23T15:32:44.857Z,51.97
2019-01-23T15:37:35.755Z,51.00
2019-01-23T15:42:26.674Z,49.13
2019-01-23T15:47:17.558Z,46.33
2019-01-23T15:52:09.201Z,46.07
2019-01-23T15:57:00.107Z,46.90
2019-01-23T16:01:51.767Z,42.90
2019-01-23T16:06:42.682Z,41.33
2019-01-23T16:11:33.586Z,44.93
2019-01-23T16:16:24.547Z,38.90
2019-01-23T16:21:15.432Z,38.67
2019-01-23T16:26:06.347Z,38.03
2019-01-23T16:30:57.250Z,37.00
2019-01-23T16:35:48.950Z,46.78
2019-01-23T16:40:39.889Z,36.23
2019-01-23T16:45:30.771Z,43.97
2019-01-23T16:50:22.676Z,34.30
2019-01-23T16:55:14.306Z,30.47
2019-01-23T17:00:08.830Z,29.10
2019-01-23T17:04:59.730Z,30.03
2019-01-23T17:09:51.383Z,30.40
2019-01-23T17:14:42.286Z,27.27
2019-01-23T17:19:33.939Z,26.20
2019-01-23T17:24:25.583Z,24.83
2019-01-23T17:29:16.482Z,25.60
2019-01-23T17:34:07.390Z,25.20
2019-01-23T17:38:59.039Z,23.80
2019-01-23T17:43:49.936Z,33.53
2019-01-23T17:48:41.591Z,27.03
2019-01-23T17:53:32.494Z,33.60
2019-01-23T17:58:24.138Z,26.90
2019-01-23T18:03:15.052Z,25.53
2019-01-23T18:08:06.751Z,24.13
2019-01-23T18:12:57.655Z,21.83
2019-01-23T18:17:48.550Z,21.93
2019-01-23T18:22:39.450Z,22.53
2019-01-23T18:27:30.368Z,21.40
2019-01-23T18:32:22.022Z,22.80
2019-01-23T18:37:23.807Z,21.40
2019-01-23T18:47:40.240Z,30.42
2019-01-23T18:52:31.143Z,21.80
2019-01-23T18:57:23.674Z,23.30
2019-01-23T19:02:14.735Z,25.45
2019-01-23T19:07:05.617Z,24.03
2019-01-23T19:11:56.506Z,22.30
2019-01-23T19:16:47.405Z,23.73
2019-01-23T19:21:38.305Z,23.33
2019-01-23T19:26:29.270Z,23.13
2019-01-23T19:31:20.198Z,22.90
2019-01-23T19:36:11.122Z,23.03
2019-01-23T19:41:02.023Z,22.10
2019-01-23T19:45:52.930Z,21.40
2019-01-23T19:50:43.964Z,22.00
2019-01-23T19:55:34.867Z,23.20
2019-01-23T20:00:25.831Z,21.90
2019-01-23T20:05:17.462Z,23.90
2019-01-23T20:10:14.335Z,23.00
2019-01-23T20:15:00.097Z,21.20
2019-01-23T20:19:51.126Z,22.93
2019-01-23T20:24:42.147Z,23.20
2019-01-23T20:29:33.050Z,23.37
2019-01-23T20:34:23.954Z,22.80
2019-01-23T20:39:14.893Z,24.60
2019-01-23T20:44:05.818Z,24.07
2019-01-23T20:48:56.714Z,22.50
2019-01-23T20:53:47.614Z,23.37
2019-01-23T20:58:38.562Z,24.17
2019-01-23T21:03:34.774Z,22.60
2019-01-23T21:08:20.508Z,21.90
2019-01-23T21:13:11.411Z,22.33
2019-01-23T21:18:02.342Z,22.73
2019-01-23T21:22:53.262Z,31.97
2019-01-23T21:27:44.186Z,25.80
2019-01-23T21:32:35.222Z,24.57
2019-01-23T21:37:26.226Z,23.27
2019-01-23T21:42:17.134Z,21.17
2019-01-23T21:47:08.069Z,24.67
2019-01-23T21:51:59.074Z,21.33
2019-01-23T21:56:50.014Z,24.20
2019-01-23T22:01:41.026Z,24.50
2019-01-23T22:06:31.938Z,21.20
2019-01-23T22:11:22.839Z,21.83
2019-01-23T22:16:13.740Z,23.07
2019-01-23T22:21:04.703Z,23.30
2019-01-23T22:25:56.473Z,23.37
2019-01-23T22:30:47.458Z,22.20
2019-01-23T22:35:38.374Z,23.07
2019-01-23T22:40:29.286Z,23.63
2019-01-23T22:45:20.205Z,23.77
2019-01-23T22:50:11.127Z,20.43
2019-01-23T22:55:02.043Z,22.80
2019-01-23T22:59:52.946Z,26.03
2019-01-23T23:04:43.882Z,21.50
2019-01-23T23:09:34.819Z,24.53
2019-01-23T23:14:26.542Z,25.50
2019-01-23T23:19:17.486Z,23.50
2019-01-23T23:24:08.498Z,23.97
2019-01-23T23:28:59.395Z,22.20
2019-01-23T23:33:50.319Z,23.00
2019-01-23T23:38:41.238Z,24.60
2019-01-23T23:43:32.154Z,29.63
2019-01-23T23:48:23.070Z,23.43
2019-01-23T23:53:13.990Z,30.48
2019-01-23T23:58:04.890Z,23.73
